Latest Weather Observations for Port Fairy

IDV60801

Issued at 8:31 pm EST Tuesday 3 May 2016 (issued every 30 minutes, with the page automatically refreshed every 10 minutes)

About weather observations | Map of weather stations | Latest weather observations for VIC | Other Formats
Station Details ID: 090175 Name: PORT FAIRY AWS Lat: -38.39 Lon: 142.23 Height: 10.0 m
Data from the previous 72 hours. | See also: Recent months at Port Fairy
Date/Time
EST
Temp
°C
App
Temp
°C
Dew
Point
Rel
Hum
%
Delta-T
°C
Wind Press
QNH
hPa
Press
MSL
hPa
Rain
since 9 am
mm
Dir
 
Spd
km/h
Gust
km/h
Spd
kts
Gust
kts
03/08:30pm 9.7 5.6 8.0 89 0.8 WNW 19 30 10 16 1006.4 1006.4 4.6
03/08:12pm 9.8 3.8 7.2 84 1.2 WNW 28 59 15 32 1006.0 1006.0 4.6
03/08:05pm 10.0 1.9 6.9 81 1.5 W 39 59 21 32 1006.4 1006.4 4.2
03/08:00pm 11.3 5.5 8.0 80 1.6 W 28 57 15 31 1006.2 1006.2 3.2
03/07:59pm 11.5 6.1 8.2 80 1.6 WNW 26 57 14 31 1006.2 1006.2 3.0
03/07:30pm 11.8 6.0 7.9 77 1.9 WNW 28 39 15 21 1005.2 1005.2 3.0
03/07:02pm 12.2 6.2 7.1 71 2.5 W 28 48 15 26 1004.7 1004.7 3.0
03/07:00pm 12.2 5.8 7.1 71 2.5 W 30 43 16 23 1004.7 1004.7 3.0
03/06:41pm 12.7 6.1 7.8 72 2.4 W 32 50 17 27 1004.3 1004.3 3.0
03/06:30pm 12.6 7.2 6.2 65 3.0 WNW 24 43 13 23 1004.0 1004.0 3.0
03/06:01pm 13.0 6.0 6.1 63 3.3 W 32 50 17 27 1003.4 1003.4 3.0
03/06:00pm 12.9 5.7 6.0 63 3.3 W 33 50 18 27 1003.4 1003.4 3.0
03/05:35pm 12.7 6.2 6.3 65 3.0 W 30 48 16 26 1003.1 1003.1 3.0
03/05:30pm 12.6 6.1 6.4 66 2.9 W 30 48 16 26 1002.9 1002.9 3.0
03/05:07pm 12.8 5.7 6.6 66 3.0 W 33 52 18 28 1002.6 1002.6 3.0
03/05:00pm 12.9 5.0 6.3 64 3.2 W 37 52 20 28 1002.4 1002.4 3.0
03/04:31pm 13.5 5.4 5.4 58 3.8 W 37 57 20 31 1001.7 1001.7 3.0
03/04:30pm 13.4 4.9 5.3 58 3.8 W 39 57 21 31 1001.7 1001.7 3.0
03/04:00pm 14.0 5.1 6.8 62 3.5 W 43 61 23 33 1001.3 1001.3 3.0
03/03:30pm 13.0 3.6 7.2 68 2.8 W 46 67 25 36 1000.7 1000.7 3.0
03/03:25pm 12.9 3.6 7.6 70 2.6 W 46 69 25 37 1000.6 1000.6 3.0
03/03:24pm 13.0 4.2 7.9 71 2.5 W 44 69 24 37 1000.6 1000.6 3.0
03/03:21pm 13.1 5.9 9.0 76 2.1 W 37 69 20 37 1000.5 1000.5 3.0
03/03:00pm 11.3 4.7 8.7 84 1.3 WNW 33 54 18 29 1000.4 1000.4 3.0
03/02:43pm 13.0 5.4 8.9 76 2.1 W 39 78 21 42 1000.4 1000.4 2.8
03/02:32pm 13.7 7.4 10.9 83 1.5 W 35 54 19 29 999.6 999.6 2.8
03/02:30pm 13.5 6.8 10.9 84 1.4 W 37 54 20 29 999.6 999.6 2.8
03/02:00pm 12.9 5.1 11.1 89 1.0 W 43 61 23 33 999.5 999.5 2.8
03/01:30pm 12.8 5.2 10.5 86 1.2 W 41 63 22 34 998.8 998.8 2.6
03/01:14pm 13.5 6.8 12.2 92 0.7 W 39 57 21 31 998.7 998.7 2.6
03/01:00pm 13.2 6.6 12.7 97 0.3 W 39 56 21 30 998.6 998.6 2.6
03/12:30pm 13.3 6.0 12.8 97 0.3 W 43 67 23 36 998.2 998.2 2.4
03/12:05pm 14.9 10.6 14.3 96 0.3 WNW 30 52 16 28 997.3 997.3 2.0
03/12:00pm 14.8 11.3 14.5 98 0.2 WNW 26 41 14 22 997.2 997.2 2.0
03/11:35am 14.6 9.6 13.3 92 0.7 W 32 52 17 28 997.4 997.4 1.6
03/11:30am 15.2 10.6 13.6 90 0.9 WNW 30 52 16 28 997.4 997.4 0.8
03/11:27am 15.6 11.5 13.8 89 1.0 NW 28 46 15 25 997.2 997.2 0.2
03/11:00am 15.3 13.4 14.2 93 0.6 NW 17 32 9 17 996.8 996.8 0.2
03/10:30am 14.2 11.2 13.7 97 0.3 NW 22 35 12 19 997.0 997.0 0.2
03/10:00am 14.3 11.4 14.0 98 0.2 NW 22 35 12 19 997.3 997.3 0.2
03/09:30am 14.7 11.9 14.4 98 0.2 NW 22 39 12 21 997.2 997.2 0.0
03/09:00am 14.6 10.2 14.1 97 0.3 NW 30 50 16 27 997.0 997.0 4.0
03/08:46am 14.5 10.1 14.0 97 0.3 NNW 30 50 16 27 996.9 996.9 4.0
03/08:30am 14.4 10.7 13.9 97 0.3 NNW 26 41 14 22 996.9 996.9 4.0
03/08:00am 14.4 10.6 13.6 95 0.4 NW 26 61 14 33 997.1 997.1 4.0
03/07:30am 15.3 10.9 13.0 86 1.3 NNW 28 46 15 25 996.2 996.2 0.0
03/07:00am 15.9 10.4 12.5 80 1.9 NNW 33 54 18 29 996.2 996.2 0.0
03/06:35am 15.7 10.2 12.3 80 1.9 NNW 33 56 18 30 996.5 996.5 0.0
03/06:30am 15.8 9.5 12.2 79 2.0 NNW 37 54 20 29 996.5 996.5 0.0
03/06:00am 16.2 10.6 12.0 76 2.3 NNW 33 65 18 35 996.6 996.6 0.0
03/05:38am 16.3 10.7 12.1 76 2.3 NNW 33 52 18 28 996.9 996.9 0.0
03/05:30am 16.1 10.7 12.1 77 2.2 NNW 32 48 17 26 996.9 996.9 0.0
03/05:00am 15.9 10.4 12.5 80 1.9 NNW 33 56 18 30 997.1 997.1 0.0
03/04:30am 16.1 10.6 12.3 78 2.1 NNW 33 54 18 29 997.1 997.1 0.0
03/04:00am 15.9 10.4 12.3 79 2.0 NNW 33 56 18 30 997.7 997.7 0.0
03/03:38am 15.7 10.8 12.6 82 1.7 NNW 30 48 16 26 997.9 997.9 0.0
03/03:30am 15.5 11.4 12.6 83 1.6 NNW 26 43 14 23 998.2 998.2 0.0
03/03:01am 15.6 10.7 12.5 82 1.7 NNW 30 50 16 27 999.0 999.0 0.0
03/03:00am 15.6 10.3 12.5 82 1.7 NNW 32 50 17 27 999.0 999.0 0.0
03/02:33am 15.9 10.9 12.3 79 2.0 NNW 30 50 16 27 999.4 999.4 0.0
03/02:30am 15.9 10.9 12.1 78 2.1 NNW 30 46 16 25 999.4 999.4 0.0
03/02:00am 15.8 10.7 12.0 78 2.1 NNW 30 50 16 27 999.6 999.6 0.0
03/01:30am 15.6 9.8 11.6 77 2.2 NNW 33 57 18 31 999.8 999.8 0.0
03/01:00am 15.7 10.0 11.7 77 2.2 NNW 33 65 18 35 1000.1 1000.1 0.0
03/12:35am 15.5 10.3 11.7 78 2.1 NNW 30 54 16 29 1000.4 1000.4 0.0
03/12:30am 15.4 10.2 11.6 78 2.0 NNW 30 43 16 23 1000.5 1000.5 0.0
03/12:08am 15.1 10.3 11.5 79 1.9 NNW 28 48 15 26 1000.9 1000.9 0.0
03/12:00am 15.1 10.6 11.5 79 1.9 NNW 26 43 14 23 1001.0 1001.0 0.0
 
Date/Time
EST
Temp
°C
App
Temp
°C
Dew
Point
Rel
Hum
%
Delta-T
°C
Wind Press
QNH
hPa
Press
MSL
hPa
Rain
since 9 am
mm
Dir
 
Spd
km/h
Gust
km/h
Spd
kts
Gust
kts
02/11:30pm 15.2 10.3 11.4 78 2.0 NNW 28 52 15 28 1001.4 1001.4 0.0
02/11:28pm 15.3 10.5 11.5 78 2.0 NNW 28 52 15 28 1001.5 1001.5 0.0
02/11:00pm 15.0 11.2 11.2 78 2.0 NNW 22 39 12 21 1002.3 1002.3 0.0
02/10:32pm 15.6 10.7 11.2 75 2.4 NNW 28 52 15 28 1002.5 1002.5 0.0
02/10:30pm 15.6 10.7 11.2 75 2.4 NNW 28 46 15 25 1002.7 1002.7 0.0
02/10:01pm 15.4 10.4 10.8 74 2.4 NNW 28 46 15 25 1002.7 1002.7 0.0
02/10:00pm 15.4 10.7 10.8 74 2.5 NNW 26 46 14 25 1002.8 1002.8 0.0
02/09:55pm 15.4 10.4 10.8 74 2.4 NNW 28 46 15 25 1002.8 1002.8 0.0
02/09:30pm 15.3 11.0 10.9 75 2.3 NNW 24 41 13 22 1003.3 1003.3 0.0
02/09:00pm 14.9 11.1 11.1 78 2.0 NNW 22 33 12 18 1003.4 1003.4 0.0
02/08:30pm 15.2 11.4 11.0 76 2.2 NNW 22 44 12 24 1003.8 1003.8 0.0
02/08:00pm 15.8 10.5 11.2 74 2.5 NNW 30 44 16 24 1004.2 1004.2 0.0
02/07:48pm 15.9 10.9 10.9 72 2.7 NNW 28 52 15 28 1004.3 1004.3 0.0
02/07:30pm 15.9 10.7 10.4 70 2.9 NNW 28 41 15 22 1004.1 1004.1 0.0
02/07:11pm 16.6 11.3 9.8 64 3.6 NNW 28 61 15 33 1004.3 1004.3 0.0
02/07:00pm 16.1 12.3 9.8 66 3.3 NNW 20 35 11 19 1004.2 1004.2 0.0
02/06:30pm 16.1 12.0 10.2 68 3.1 NNW 22 37 12 20 1004.5 1004.5 0.0
02/06:08pm 16.8 11.5 9.7 63 3.7 NNW 28 52 15 28 1004.4 1004.4 0.0
02/06:00pm 16.8 12.2 9.7 63 3.7 NNW 24 39 13 21 1004.2 1004.2 0.0
02/05:30pm 16.8 12.5 9.5 62 3.8 NNW 22 43 12 23 1004.1 1004.1 0.0
02/05:00pm 16.9 12.3 9.6 62 3.8 NNW 24 43 13 23 1004.2 1004.2 0.0
02/04:30pm 17.4 11.7 9.8 61 4.0 NNW 30 48 16 26 1004.4 1004.4 0.0
02/04:00pm 17.3 11.3 10.0 62 3.9 NNW 32 50 17 27 1004.4 1004.4 0.0
02/03:34pm 17.1 11.8 9.8 62 3.8 NNW 28 54 15 29 1004.8 1004.8 0.0
02/03:30pm 17.3 11.2 9.7 61 4.0 NNW 32 50 17 27 1004.8 1004.8 0.0
02/03:00pm 18.1 12.5 10.0 59 4.3 NNW 30 52 16 28 1004.8 1004.8 0.0
02/02:30pm 17.9 12.2 9.8 59 4.3 NNW 30 57 16 31 1005.4 1005.4 0.0
02/02:00pm 18.2 12.4 9.5 57 4.6 NNW 30 50 16 27 1005.6 1005.6 0.0
02/01:30pm 17.1 10.6 8.8 58 4.3 NNW 33 56 18 30 1006.2 1006.2 0.0
02/01:01pm 16.9 10.6 8.8 59 4.2 NNW 32 50 17 27 1006.6 1006.6 0.0
02/01:00pm 16.9 10.4 8.8 59 4.2 NW 33 50 18 27 1006.6 1006.6 0.0
02/12:30pm 17.4 10.4 8.5 56 4.6 NNW 35 59 19 32 1006.8 1006.8 0.0
02/12:00pm 16.9 11.0 9.1 60 4.0 NNW 30 50 16 27 1007.6 1007.6 0.0
02/11:33am 16.4 9.8 8.6 60 4.0 NNW 33 56 18 30 1008.0 1008.0 0.0
02/11:30am 16.3 9.9 8.5 60 4.0 NNW 32 50 17 27 1008.1 1008.1 0.0
02/11:00am 15.9 9.9 8.6 62 3.7 NNW 30 48 16 26 1008.2 1008.2 0.0
02/10:33am 15.2 9.6 8.7 65 3.3 NNW 28 48 15 26 1008.7 1008.7 0.0
02/10:30am 15.2 9.3 8.9 66 3.2 NNW 30 48 16 26 1008.8 1008.8 0.0
02/10:12am 14.5 8.9 8.7 68 2.9 NNW 28 48 15 26 1008.9 1008.9 0.0
02/10:00am 14.2 9.3 8.4 68 2.9 NNW 24 43 13 23 1009.0 1009.0 0.0
02/09:48am 13.7 7.9 7.9 68 2.9 NNW 28 46 15 25 1009.3 1009.3 0.0
02/09:30am 13.5 8.5 8.1 70 2.7 NNW 24 39 13 21 1009.5 1009.5 0.0
02/09:00am 12.7 8.2 8.6 76 2.0 NNW 22 37 12 20 1009.8 1009.8 4.2
02/08:30am 11.9 8.4 8.9 82 1.5 N 17 28 9 15 1010.2 1010.2 4.2
02/08:00am 10.9 7.0 8.8 87 1.0 N 19 26 10 14 1010.3 1010.3 4.2
02/07:30am 9.8 6.1 7.9 88 0.9 NNW 17 24 9 13 1010.3 1010.3 4.2
02/07:00am 10.0 7.1 8.1 88 0.9 NNW 13 24 7 13 1010.6 1010.6 4.2
02/06:30am 10.2 7.3 8.3 88 0.9 NNW 13 26 7 14 1010.8 1010.8 4.2
02/06:00am 9.9 5.8 8.0 88 0.9 NNW 19 26 10 14 1010.9 1010.9 4.2
02/05:30am 9.4 5.5 7.3 87 1.0 NNW 17 30 9 16 1011.1 1011.1 4.2
02/05:00am 10.0 5.9 7.8 86 1.1 NNW 19 32 10 17 1011.1 1011.1 4.2
02/04:30am 9.9 6.6 8.0 88 0.9 NNW 15 24 8 13 1011.2 1011.2 4.2
02/04:00am 9.6 5.9 7.9 89 0.8 NNW 17 28 9 15 1011.4 1011.4 4.2
02/03:30am 9.6 5.4 7.5 87 1.0 NNW 19 28 10 15 1011.7 1011.7 4.2
02/03:00am 9.7 5.4 7.8 88 0.9 NNW 20 32 11 17 1012.1 1012.1 4.2
02/02:30am 9.6 5.3 7.9 89 0.8 NNW 20 32 11 17 1012.4 1012.4 4.2
02/02:00am 9.3 6.3 7.7 90 0.8 NNW 13 20 7 11 1012.7 1012.7 4.2
02/01:30am 9.4 6.4 7.5 88 0.9 NNW 13 20 7 11 1013.0 1013.0 4.2
02/01:00am 9.7 6.3 7.8 88 0.9 NNW 15 22 8 12 1013.2 1013.2 4.2
02/12:30am 9.5 6.1 7.8 89 0.8 NNW 15 20 8 11 1013.7 1013.7 4.2
02/12:00am 9.5 6.1 7.6 88 0.9 NNW 15 20 8 11 1013.7 1013.7 4.2
 
Date/Time
EST
Temp
°C
App
Temp
°C
Dew
Point
Rel
Hum
%
Delta-T
°C
Wind Press
QNH
hPa
Press
MSL
hPa
Rain
since 9 am
mm
Dir
 
Spd
km/h
Gust
km/h
Spd
kts
Gust
kts
01/11:30pm 9.7 6.4 8.0 89 0.8 NNW 15 24 8 13 1013.9 1013.9 4.2
01/11:00pm 9.6 6.7 8.2 91 0.7 NNW 13 19 7 10 1014.5 1014.5 4.2
01/10:30pm 9.3 6.7 7.7 90 0.8 NNW 11 20 6 11 1014.5 1014.5 4.2
01/10:00pm 9.6 6.6 7.9 89 0.8 NNW 13 22 7 12 1014.5 1014.5 4.2
01/09:30pm 9.8 6.4 7.7 87 1.0 NNW 15 24 8 13 1014.5 1014.5 4.2
01/09:00pm 9.4 5.7 6.5 82 1.3 NNW 15 22 8 12 1014.4 1014.4 4.2
01/08:30pm 9.9 7.4 6.4 79 1.6 NNW 9 15 5 8 1014.4 1014.4 4.2
01/08:00pm 10.8 8.0 6.9 77 1.8 NW 11 19 6 10 1014.2 1014.2 4.2
01/07:30pm 11.7 8.1 6.8 72 2.3 NW 15 24 8 13 1014.1 1014.1 4.2
01/07:00pm 12.5 7.9 6.5 67 2.9 W 20 32 11 17 1014.0 1014.0 4.2
01/06:30pm 12.8 7.4 7.9 72 2.4 W 26 37 14 20 1013.8 1013.8 4.2
01/06:00pm 13.0 7.9 7.7 70 2.6 W 24 35 13 19 1013.5 1013.5 4.2
01/05:30pm 12.9 6.5 6.9 67 2.9 W 30 41 16 22 1013.4 1013.4 4.2
01/05:18pm 12.7 6.0 7.4 70 2.6 W 32 50 17 27 1013.4 1013.4 4.2
01/05:00pm 13.6 6.2 6.9 64 3.2 WSW 35 50 19 27 1013.1 1013.1 4.2
01/04:30pm 13.6 7.6 7.2 65 3.1 W 28 41 15 22 1012.7 1012.7 4.2
01/04:00pm 13.9 6.3 7.7 66 3.1 W 37 50 20 27 1012.5 1012.5 4.2
01/03:30pm 14.4 6.3 7.2 62 3.5 WSW 39 52 21 28 1012.1 1012.1 4.2
01/03:00pm 14.1 7.6 8.9 71 2.6 WSW 33 46 18 25 1011.6 1011.6 4.2
01/02:31pm 14.7 7.5 7.7 63 3.5 W 35 59 19 32 1011.1 1011.1 4.0
01/02:30pm 15.0 8.2 7.8 62 3.6 W 33 46 18 25 1011.1 1011.1 4.0
01/02:00pm 14.6 5.9 7.6 63 3.5 WSW 43 57 23 31 1010.8 1010.8 4.0
01/01:46pm 14.3 7.4 8.7 69 2.8 WSW 35 54 19 29 1010.6 1010.6 4.0
01/01:30pm 14.7 6.7 8.9 68 2.9 WSW 41 56 22 30 1010.5 1010.5 4.0
01/01:00pm 13.2 7.1 9.6 79 1.8 W 32 56 17 30 1010.3 1010.3 4.0
01/12:30pm 11.6 3.2 7.5 76 2.0 WSW 41 59 22 32 1010.1 1010.1 4.0
01/12:29pm 12.2 4.0 8.1 76 2.0 WSW 41 59 22 32 1010.1 1010.1 3.8
01/12:00pm 13.3 5.0 9.4 77 2.0 WSW 43 56 23 30 1009.8 1009.8 3.6
01/11:30am 13.4 6.6 9.1 75 2.2 W 35 54 19 29 1009.5 1009.5 3.4
01/11:24am 13.1 6.2 9.0 76 2.1 W 35 54 19 29 1009.4 1009.4 3.4
01/11:00am 12.1 4.9 10.7 91 0.7 W 39 56 21 30 1009.1 1009.1 3.4
01/10:50am 12.3 5.1 11.8 97 0.3 WSW 41 61 22 33 1008.9 1008.9 3.4
01/10:39am 11.3 8.4 11.1 99 0.1 W 17 44 9 24 1008.8 1008.8 3.4
01/10:30am 11.1 9.3 10.9 99 0.1 WNW 11 17 6 9 1008.7 1008.7 3.4
01/10:00am 10.0 6.2 9.9 99 0.1 NW 20 35 11 19 1008.1 1008.1 3.4
01/09:30am 10.3 6.6 10.1 99 0.1 NW 20 39 11 21 1007.4 1007.4 0.4
01/09:00am 10.8 7.8 10.6 99 0.1 NW 17 26 9 14 1007.3 1007.3 11.4
01/08:30am 9.5 2.1 8.4 93 0.5 W 37 59 20 32 1006.9 1006.9 9.6
01/08:29am 9.5 2.1 8.4 93 0.5 WNW 37 59 20 32 1006.9 1006.9 9.4
01/08:25am 9.6 3.2 8.4 92 0.6 WNW 32 59 17 32 1006.8 1006.8 9.2
01/08:21am 10.2 4.7 9.0 92 0.6 NW 28 46 15 25 1006.6 1006.6 8.8
01/08:00am 12.3 7.6 10.5 89 0.9 W 26 39 14 21 1005.6 1005.6 7.2
01/07:30am 13.0 6.7 11.1 88 1.0 WSW 35 43 19 23 1004.4 1004.4 7.0
01/07:00am 12.7 7.1 11.6 93 0.6 W 32 43 17 23 1003.8 1003.8 7.0
01/06:30am 11.9 4.6 11.7 99 0.1 WSW 41 57 22 31 1003.1 1003.1 7.0
01/06:18am 11.7 7.6 11.5 99 0.1 W 24 52 13 28 1003.0 1003.0 6.8
01/06:00am 11.4 8.6 11.2 99 0.1 NW 17 30 9 16 1002.4 1002.4 6.8
01/05:30am 11.6 8.4 11.3 98 0.2 NW 19 32 10 17 1001.9 1001.9 5.2
01/05:00am 12.0 8.6 11.4 96 0.3 NW 20 32 11 17 1001.8 1001.8 4.4
01/04:30am 12.8 9.4 11.4 91 0.7 NNW 20 32 11 17 1001.3 1001.3 3.8
01/04:00am 13.4 10.2 11.3 87 1.1 NW 19 32 10 17 1001.0 1001.0 3.6
01/03:33am 13.7 8.6 10.7 82 1.6 WNW 28 48 15 26 1000.5 1000.5 3.6
01/03:30am 13.8 8.3 10.6 81 1.7 WNW 30 48 16 26 1000.6 1000.6 3.6
01/03:01am 15.8 10.9 11.4 75 2.4 NNW 28 48 15 26 1000.0 1000.0 3.6
01/03:00am 15.9 10.7 11.5 75 2.4 NNW 30 48 16 26 1000.0 1000.0 3.6
01/02:58am 15.9 11.1 11.5 75 2.4 NNW 28 48 15 26 1000.0 1000.0 3.6
01/02:30am 15.6 11.9 11.6 77 2.2 NNW 22 33 12 18 999.8 999.8 3.6
01/02:00am 15.8 12.0 12.4 80 1.9 NNW 24 39 13 21 1000.2 1000.2 3.6
01/01:30am 16.0 12.6 13.7 86 1.3 NNW 24 43 13 23 1000.7 1000.7 3.6
01/01:00am 15.0 13.4 14.0 94 0.6 NNW 15 26 8 14 1000.9 1000.9 3.6
01/12:30am 14.6 12.5 13.6 94 0.6 N 17 28 9 15 1000.9 1000.9 3.6
01/12:00am 15.0 13.1 13.0 88 1.1 NNW 15 24 8 13 1001.0 1001.0 3.6
 
Date/Time
EST
Temp
°C
App
Temp
°C
Dew
Point
Rel
Hum
%
Delta-T
°C
Wind Press
QNH
hPa
Press
MSL
hPa
Rain
since 9 am
mm
Dir
 
Spd
km/h
Gust
km/h
Spd
kts
Gust
kts
30/11:41pm 15.6 13.1 12.4 81 1.8 NW 17 50 9 27 1001.9 1001.9 1.8
30/11:40pm 15.7 13.6 12.5 81 1.8 NW 15 50 8 27 1002.2 1002.2 1.4
30/11:30pm 14.8 13.8 11.0 78 2.0 NW 7 11 4 6 1001.2 1001.2 0.0
30/11:00pm 15.2 13.1 11.0 76 2.2 WNW 13 24 7 13 1002.2 1002.2 0.0
30/10:30pm 15.9 15.0 11.3 74 2.5 NNE 7 13 4 7 1002.6 1002.6 0.0
30/10:00pm 17.0 15.2 10.8 67 3.3 NNE 11 20 6 11 1003.5 1003.5 0.0
30/09:30pm 16.9 14.6 10.5 66 3.4 NNE 13 19 7 10 1004.3 1004.3 0.0
30/09:00pm 17.2 14.8 10.1 63 3.8 NNE 13 19 7 10 1004.7 1004.7 0.0

Other Formats:

Comma delimited format used in spreadsheet applications
http://www.bom.gov.au/fwo/IDV60801/IDV60801.94830.axf

JavaScript Object Notation format (JSON) in row-major order
http://www.bom.gov.au/fwo/IDV60801/IDV60801.94830.json